sensor_id;sensor_type;location;lat;lon;timestamp;P1;durP1;ratioP1;P2;durP2;ratioP2
58643;SDS011;44411;49.994;8.660;2023-04-24T00:02:17;2.43;;;1.57;;
58643;SDS011;44411;49.994;8.660;2023-04-24T00:04:42;3.28;;;1.48;;
58643;SDS011;44411;49.994;8.660;2023-04-24T00:07:10;2.50;;;1.20;;
58643;SDS011;44411;49.994;8.660;2023-04-24T00:09:36;4.93;;;1.55;;
58643;SDS011;44411;49.994;8.660;2023-04-24T00:12:01;4.57;;;1.35;;
58643;SDS011;44411;49.994;8.660;2023-04-24T00:14:29;2.80;;;1.40;;
58643;SDS011;44411;49.994;8.660;2023-04-24T00:16:54;2.60;;;1.20;;
58643;SDS011;44411;49.994;8.660;2023-04-24T00:19:19;4.10;;;1.63;;
58643;SDS011;44411;49.994;8.660;2023-04-24T00:21:46;1.90;;;0.95;;
58643;SDS011;44411;49.994;8.660;2023-04-24T00:24:11;3.10;;;1.13;;
58643;SDS011;44411;49.994;8.660;2023-04-24T00:26:36;2.00;;;1.10;;
58643;SDS011;44411;49.994;8.660;2023-04-24T00:29:01;2.40;;;1.57;;
58643;SDS011;44411;49.994;8.660;2023-04-24T00:31:27;2.13;;;1.17;;
58643;SDS011;44411;49.994;8.660;2023-04-24T00:33:52;3.20;;;1.13;;
58643;SDS011;44411;49.994;8.660;2023-04-24T00:36:17;1.87;;;1.10;;
58643;SDS011;44411;49.994;8.660;2023-04-24T00:38:44;2.05;;;1.20;;
58643;SDS011;44411;49.994;8.660;2023-04-24T00:41:09;2.38;;;1.00;;
58643;SDS011;44411;49.994;8.660;2023-04-24T00:43:35;1.87;;;1.00;;
58643;SDS011;44411;49.994;8.660;2023-04-24T00:46:00;1.87;;;0.90;;
58643;SDS011;44411;49.994;8.660;2023-04-24T00:48:26;2.83;;;0.93;;
58643;SDS011;44411;49.994;8.660;2023-04-24T00:50:52;2.30;;;1.20;;
58643;SDS011;44411;49.994;8.660;2023-04-24T00:53:17;1.52;;;1.00;;
58643;SDS011;44411;49.994;8.660;2023-04-24T00:55:43;3.00;;;1.10;;
58643;SDS011;44411;49.994;8.660;2023-04-24T00:58:08;3.93;;;1.10;;
58643;SDS011;44411;49.994;8.660;2023-04-24T01:00:33;3.67;;;1.00;;
58643;SDS011;44411;49.994;8.660;2023-04-24T01:02:59;2.78;;;1.00;;
58643;SDS011;44411;49.994;8.660;2023-04-24T01:05:24;1.83;;;0.95;;
58643;SDS011;44411;49.994;8.660;2023-04-24T01:07:50;3.85;;;1.15;;
58643;SDS011;44411;49.994;8.660;2023-04-24T01:10:16;3.17;;;1.17;;
58643;SDS011;44411;49.994;8.660;2023-04-24T01:12:42;2.30;;;0.90;;
58643;SDS011;44411;49.994;8.660;2023-04-24T01:15:08;4.87;;;1.20;;
58643;SDS011;44411;49.994;8.660;2023-04-24T01:17:33;2.90;;;1.10;;
58643;SDS011;44411;49.994;8.660;2023-04-24T01:19:59;2.00;;;1.13;;
58643;SDS011;44411;49.994;8.660;2023-04-24T01:22:24;2.78;;;1.08;;
58643;SDS011;44411;49.994;8.660;2023-04-24T01:24:50;2.87;;;1.40;;
58643;SDS011;44411;49.994;8.660;2023-04-24T01:27:15;3.90;;;1.10;;
58643;SDS011;44411;49.994;8.660;2023-04-24T01:29:40;3.60;;;1.10;;
58643;SDS011;44411;49.994;8.660;2023-04-24T01:32:06;2.13;;;1.27;;
58643;SDS011;44411;49.994;8.660;2023-04-24T01:34:31;2.90;;;1.10;;
58643;SDS011;44411;49.994;8.660;2023-04-24T01:36:57;2.08;;;1.20;;
58643;SDS011;44411;49.994;8.660;2023-04-24T01:39:22;5.68;;;1.17;;
58643;SDS011;44411;49.994;8.660;2023-04-24T01:41:54;2.22;;;0.95;;
58643;SDS011;44411;49.994;8.660;2023-04-24T01:44:19;2.83;;;0.95;;
58643;SDS011;44411;49.994;8.660;2023-04-24T01:46:44;2.00;;;1.10;;
58643;SDS011;44411;49.994;8.660;2023-04-24T01:49:10;2.43;;;1.13;;
58643;SDS011;44411;49.994;8.660;2023-04-24T01:51:35;2.97;;;1.45;;
58643;SDS011;44411;49.994;8.660;2023-04-24T01:54:00;2.40;;;1.10;;
58643;SDS011;44411;49.994;8.660;2023-04-24T01:56:25;2.50;;;1.17;;
58643;SDS011;44411;49.994;8.660;2023-04-24T01:58:53;2.30;;;1.02;;
58643;SDS011;44411;49.994;8.660;2023-04-24T06:01:46;3.40;;;2.33;;
58643;SDS011;44411;49.994;8.660;2023-04-24T06:04:12;4.15;;;2.35;;
58643;SDS011;44411;49.994;8.660;2023-04-24T06:06:38;4.10;;;2.40;;
58643;SDS011;44411;49.994;8.660;2023-04-24T06:09:04;3.70;;;2.25;;
58643;SDS011;44411;49.994;8.660;2023-04-24T06:11:29;4.15;;;2.30;;
58643;SDS011;44411;49.994;8.660;2023-04-24T06:13:55;5.40;;;2.03;;
58643;SDS011;44411;49.994;8.660;2023-04-24T06:16:20;4.18;;;2.10;;
58643;SDS011;44411;49.994;8.660;2023-04-24T06:18:45;3.57;;;2.13;;
58643;SDS011;44411;49.994;8.660;2023-04-24T06:21:12;6.20;;;2.42;;
58643;SDS011;44411;49.994;8.660;2023-04-24T06:23:37;5.38;;;2.83;;
58643;SDS011;44411;49.994;8.660;2023-04-24T06:26:02;4.57;;;2.80;;
58643;SDS011;44411;49.994;8.660;2023-04-24T06:28:27;5.00;;;3.23;;
58643;SDS011;44411;49.994;8.660;2023-04-24T06:30:52;6.27;;;2.83;;
58643;SDS011;44411;49.994;8.660;2023-04-24T06:33:18;4.87;;;2.80;;
58643;SDS011;44411;49.994;8.660;2023-04-24T06:35:43;5.30;;;3.00;;
58643;SDS011;44411;49.994;8.660;2023-04-24T06:38:08;6.17;;;2.90;;
58643;SDS011;44411;49.994;8.660;2023-04-24T06:40:33;8.90;;;3.87;;
58643;SDS011;44411;49.994;8.660;2023-04-24T06:42:59;5.15;;;3.05;;
58643;SDS011;44411;49.994;8.660;2023-04-24T06:45:25;4.80;;;3.30;;
58643;SDS011;44411;49.994;8.660;2023-04-24T06:47:50;5.40;;;3.10;;
58643;SDS011;44411;49.994;8.660;2023-04-24T06:50:15;5.00;;;3.17;;
58643;SDS011;44411;49.994;8.660;2023-04-24T06:52:41;6.05;;;3.15;;
58643;SDS011;44411;49.994;8.660;2023-04-24T06:55:07;4.80;;;3.42;;
58643;SDS011;44411;49.994;8.660;2023-04-24T07:00:09;5.47;;;3.25;;
58643;SDS011;44411;49.994;8.660;2023-04-24T07:02:37;5.75;;;3.35;;
58643;SDS011;44411;49.994;8.660;2023-04-24T07:05:03;6.25;;;4.25;;
58643;SDS011;44411;49.994;8.660;2023-04-24T07:10:05;5.30;;;3.35;;
58643;SDS011;44411;49.994;8.660;2023-04-24T07:12:30;5.55;;;3.58;;
58643;SDS011;44411;49.994;8.660;2023-04-24T07:14:55;7.55;;;4.03;;
58643;SDS011;44411;49.994;8.660;2023-04-24T07:17:21;5.65;;;3.35;;
58643;SDS011;44411;49.994;8.660;2023-04-24T07:19:46;7.13;;;3.88;;
58643;SDS011;44411;49.994;8.660;2023-04-24T07:22:11;5.03;;;3.10;;
58643;SDS011;44411;49.994;8.660;2023-04-24T07:24:41;5.20;;;3.10;;
58643;SDS011;44411;49.994;8.660;2023-04-24T07:27:07;6.53;;;3.65;;
58643;SDS011;44411;49.994;8.660;2023-04-24T07:29:32;5.75;;;3.40;;
58643;SDS011;44411;49.994;8.660;2023-04-24T07:31:57;6.05;;;3.13;;
58643;SDS011;44411;49.994;8.660;2023-04-24T07:34:23;5.47;;;3.25;;
58643;SDS011;44411;49.994;8.660;2023-04-24T07:36:48;4.22;;;2.53;;
58643;SDS011;44411;49.994;8.660;2023-04-24T07:39:13;4.78;;;2.90;;
58643;SDS011;44411;49.994;8.660;2023-04-24T07:41:38;4.95;;;2.67;;
58643;SDS011;44411;49.994;8.660;2023-04-24T07:44:04;4.15;;;2.45;;
58643;SDS011;44411;49.994;8.660;2023-04-24T07:46:29;5.28;;;2.88;;
58643;SDS011;44411;49.994;8.660;2023-04-24T07:48:55;3.20;;;2.00;;
58643;SDS011;44411;49.994;8.660;2023-04-24T07:51:20;5.93;;;2.75;;
58643;SDS011;44411;49.994;8.660;2023-04-24T07:53:46;4.47;;;2.65;;
58643;SDS011;44411;49.994;8.660;2023-04-24T07:56:11;4.95;;;2.25;;
58643;SDS011;44411;49.994;8.660;2023-04-24T07:58:36;5.13;;;2.83;;
58643;SDS011;44411;49.994;8.660;2023-04-24T08:01:01;4.00;;;2.30;;
58643;SDS011;44411;49.994;8.660;2023-04-24T08:03:27;5.40;;;2.80;;
58643;SDS011;44411;49.994;8.660;2023-04-24T08:05:52;4.53;;;2.25;;
58643;SDS011;44411;49.994;8.660;2023-04-24T08:08:20;3.20;;;1.77;;
58643;SDS011;44411;49.994;8.660;2023-04-24T08:10:45;4.03;;;2.10;;
58643;SDS011;44411;49.994;8.660;2023-04-24T08:13:10;5.37;;;2.20;;
58643;SDS011;44411;49.994;8.660;2023-04-24T08:15:36;3.25;;;2.00;;
58643;SDS011;44411;49.994;8.660;2023-04-24T08:18:01;4.05;;;2.15;;
58643;SDS011;44411;49.994;8.660;2023-04-24T08:20:27;4.72;;;2.17;;
58643;SDS011;44411;49.994;8.660;2023-04-24T08:22:52;4.07;;;2.30;;
58643;SDS011;44411;49.994;8.660;2023-04-24T08:25:17;4.00;;;2.27;;
58643;SDS011;44411;49.994;8.660;2023-04-24T08:27:44;4.93;;;2.50;;
58643;SDS011;44411;49.994;8.660;2023-04-24T08:30:09;3.67;;;2.03;;
58643;SDS011;44411;49.994;8.660;2023-04-24T08:32:35;4.90;;;2.70;;
58643;SDS011;44411;49.994;8.660;2023-04-24T08:35:00;4.20;;;2.15;;
58643;SDS011;44411;49.994;8.660;2023-04-24T08:37:26;4.93;;;2.10;;
58643;SDS011;44411;49.994;8.660;2023-04-24T08:39:51;3.67;;;2.13;;
58643;SDS011;44411;49.994;8.660;2023-04-24T08:42:17;4.50;;;2.43;;
58643;SDS011;44411;49.994;8.660;2023-04-24T08:44:42;5.45;;;2.60;;
58643;SDS011;44411;49.994;8.660;2023-04-24T08:47:08;3.70;;;2.53;;
58643;SDS011;44411;49.994;8.660;2023-04-24T08:49:33;4.90;;;2.20;;
58643;SDS011;44411;49.994;8.660;2023-04-24T08:52:01;3.70;;;2.08;;
58643;SDS011;44411;49.994;8.660;2023-04-24T08:54:26;4.80;;;2.40;;
58643;SDS011;44411;49.994;8.660;2023-04-24T08:56:53;3.35;;;2.20;;
58643;SDS011;44411;49.994;8.660;2023-04-24T08:59:18;3.10;;;1.75;;
58643;SDS011;44411;49.994;8.660;2023-04-24T09:01:45;3.15;;;1.63;;
58643;SDS011;44411;49.994;8.660;2023-04-24T09:04:10;3.72;;;2.10;;
58643;SDS011;44411;49.994;8.660;2023-04-24T09:06:38;2.92;;;1.77;;
58643;SDS011;44411;49.994;8.660;2023-04-24T09:09:03;4.97;;;2.30;;
58643;SDS011;44411;49.994;8.660;2023-04-24T09:11:30;4.18;;;2.33;;
58643;SDS011;44411;49.994;8.660;2023-04-24T09:13:55;3.83;;;2.17;;
58643;SDS011;44411;49.994;8.660;2023-04-24T09:16:21;4.32;;;2.28;;
58643;SDS011;44411;49.994;8.660;2023-04-24T09:18:48;4.88;;;2.60;;
58643;SDS011;44411;49.994;8.660;2023-04-24T09:21:14;3.63;;;2.17;;
58643;SDS011;44411;49.994;8.660;2023-04-24T09:23:39;4.10;;;1.85;;
58643;SDS011;44411;49.994;8.660;2023-04-24T09:26:04;4.32;;;2.22;;
58643;SDS011;44411;49.994;8.660;2023-04-24T09:31:28;3.63;;;2.20;;
58643;SDS011;44411;49.994;8.660;2023-04-24T09:33:57;6.20;;;2.13;;
58643;SDS011;44411;49.994;8.660;2023-04-24T09:36:30;3.50;;;1.90;;
58643;SDS011;44411;49.994;8.660;2023-04-24T09:38:58;4.05;;;1.92;;
58643;SDS011;44411;49.994;8.660;2023-04-24T09:41:24;3.28;;;1.80;;
58643;SDS011;44411;49.994;8.660;2023-04-24T09:43:50;4.00;;;1.80;;
58643;SDS011;44411;49.994;8.660;2023-04-24T09:46:15;3.70;;;1.98;;
58643;SDS011;44411;49.994;8.660;2023-04-24T09:48:43;3.08;;;1.65;;
58643;SDS011;44411;49.994;8.660;2023-04-24T09:51:08;4.10;;;1.70;;
58643;SDS011;44411;49.994;8.660;2023-04-24T09:53:36;3.10;;;1.75;;
58643;SDS011;44411;49.994;8.660;2023-04-24T09:56:01;2.90;;;1.73;;
58643;SDS011;44411;49.994;8.660;2023-04-24T09:58:28;5.55;;;1.95;;
58643;SDS011;44411;49.994;8.660;2023-04-24T10:00:53;2.75;;;1.67;;
58643;SDS011;44411;49.994;8.660;2023-04-24T10:03:18;3.08;;;1.70;;
58643;SDS011;44411;49.994;8.660;2023-04-24T10:05:44;3.13;;;1.60;;
58643;SDS011;44411;49.994;8.660;2023-04-24T10:08:11;3.92;;;1.60;;
58643;SDS011;44411;49.994;8.660;2023-04-24T10:10:40;1.98;;;1.25;;
58643;SDS011;44411;49.994;8.660;2023-04-24T10:13:06;4.35;;;1.73;;
58643;SDS011;44411;49.994;8.660;2023-04-24T10:15:32;3.50;;;1.40;;
58643;SDS011;44411;49.994;8.660;2023-04-24T10:17:58;2.65;;;1.30;;
58643;SDS011;44411;49.994;8.660;2023-04-24T10:20:25;2.90;;;1.38;;
58643;SDS011;44411;49.994;8.660;2023-04-24T10:22:52;2.60;;;1.20;;
58643;SDS011;44411;49.994;8.660;2023-04-24T10:25:20;5.05;;;2.25;;
58643;SDS011;44411;49.994;8.660;2023-04-24T10:27:46;2.90;;;1.35;;
58643;SDS011;44411;49.994;8.660;2023-04-24T10:30:12;4.05;;;1.65;;
58643;SDS011;44411;49.994;8.660;2023-04-24T10:32:37;3.83;;;1.65;;
58643;SDS011;44411;49.994;8.660;2023-04-24T10:35:03;3.92;;;1.50;;
58643;SDS011;44411;49.994;8.660;2023-04-24T10:37:28;3.05;;;1.73;;
58643;SDS011;44411;49.994;8.660;2023-04-24T10:40:00;2.85;;;1.40;;
58643;SDS011;44411;49.994;8.660;2023-04-24T10:42:26;5.32;;;1.60;;
58643;SDS011;44411;49.994;8.660;2023-04-24T10:44:52;3.55;;;1.75;;
58643;SDS011;44411;49.994;8.660;2023-04-24T10:47:18;2.55;;;1.40;;
58643;SDS011;44411;49.994;8.660;2023-04-24T10:49:43;4.25;;;1.77;;
58643;SDS011;44411;49.994;8.660;2023-04-24T10:52:09;3.15;;;1.83;;
58643;SDS011;44411;49.994;8.660;2023-04-24T10:59:50;4.93;;;2.10;;
58643;SDS011;44411;49.994;8.660;2023-04-24T11:02:16;3.55;;;1.80;;
58643;SDS011;44411;49.994;8.660;2023-04-24T11:04:42;4.20;;;2.58;;
58643;SDS011;44411;49.994;8.660;2023-04-24T11:07:11;5.70;;;3.38;;
58643;SDS011;44411;49.994;8.660;2023-04-24T11:09:36;5.20;;;2.83;;
58643;SDS011;44411;49.994;8.660;2023-04-24T11:12:05;5.95;;;2.72;;
58643;SDS011;44411;49.994;8.660;2023-04-24T11:19:53;3.88;;;2.13;;
58643;SDS011;44411;49.994;8.660;2023-04-24T11:22:25;3.35;;;2.17;;
58643;SDS011;44411;49.994;8.660;2023-04-24T11:24:53;2.78;;;1.50;;
58643;SDS011;44411;49.994;8.660;2023-04-24T11:27:19;3.67;;;1.92;;
58643;SDS011;44411;49.994;8.660;2023-04-24T11:32:26;3.15;;;1.52;;
58643;SDS011;44411;49.994;8.660;2023-04-24T11:34:53;2.38;;;1.45;;
58643;SDS011;44411;49.994;8.660;2023-04-24T11:37:18;2.55;;;1.60;;
58643;SDS011;44411;49.994;8.660;2023-04-24T11:39:43;2.85;;;1.60;;
58643;SDS011;44411;49.994;8.660;2023-04-24T11:42:09;3.05;;;1.38;;
58643;SDS011;44411;49.994;8.660;2023-04-24T11:44:34;2.65;;;1.45;;
58643;SDS011;44411;49.994;8.660;2023-04-24T11:47:02;2.55;;;1.48;;
58643;SDS011;44411;49.994;8.660;2023-04-24T11:49:27;2.08;;;1.20;;
58643;SDS011;44411;49.994;8.660;2023-04-24T11:51:55;2.37;;;1.50;;
58643;SDS011;44411;49.994;8.660;2023-04-24T11:54:21;3.13;;;1.95;;
58643;SDS011;44411;49.994;8.660;2023-04-24T11:56:47;2.93;;;1.43;;
58643;SDS011;44411;49.994;8.660;2023-04-24T11:59:12;3.25;;;1.58;;
58643;SDS011;44411;49.994;8.660;2023-04-24T12:01:47;3.00;;;1.40;;
58643;SDS011;44411;49.994;8.660;2023-04-24T12:04:12;2.92;;;1.55;;
58643;SDS011;44411;49.994;8.660;2023-04-24T12:06:38;4.72;;;2.08;;
58643;SDS011;44411;49.994;8.660;2023-04-24T12:09:03;3.88;;;1.60;;
58643;SDS011;44411;49.994;8.660;2023-04-24T12:11:29;5.10;;;1.77;;
58643;SDS011;44411;49.994;8.660;2023-04-24T12:13:54;2.92;;;1.65;;
58643;SDS011;44411;49.994;8.660;2023-04-24T12:16:19;3.80;;;1.70;;
58643;SDS011;44411;49.994;8.660;2023-04-24T12:18:45;3.35;;;1.40;;
58643;SDS011;44411;49.994;8.660;2023-04-24T12:23:45;3.50;;;1.95;;
58643;SDS011;44411;49.994;8.660;2023-04-24T12:26:11;3.35;;;1.88;;
58643;SDS011;44411;49.994;8.660;2023-04-24T12:28:37;5.60;;;2.30;;
58643;SDS011;44411;49.994;8.660;2023-04-24T12:31:03;3.72;;;2.10;;
58643;SDS011;44411;49.994;8.660;2023-04-24T12:33:31;5.25;;;2.60;;
58643;SDS011;44411;49.994;8.660;2023-04-24T12:35:57;3.92;;;2.00;;
58643;SDS011;44411;49.994;8.660;2023-04-24T12:38:23;3.88;;;1.88;;
58643;SDS011;44411;49.994;8.660;2023-04-24T12:41:00;4.75;;;2.33;;
58643;SDS011;44411;49.994;8.660;2023-04-24T12:43:26;5.05;;;2.20;;
58643;SDS011;44411;49.994;8.660;2023-04-24T12:45:51;4.47;;;2.80;;
58643;SDS011;44411;49.994;8.660;2023-04-24T12:48:16;5.13;;;2.97;;
58643;SDS011;44411;49.994;8.660;2023-04-24T12:50:42;6.10;;;2.30;;
58643;SDS011;44411;49.994;8.660;2023-04-24T12:53:08;6.03;;;2.92;;
58643;SDS011;44411;49.994;8.660;2023-04-24T12:55:33;5.22;;;2.80;;
58643;SDS011;44411;49.994;8.660;2023-04-24T12:57:59;7.63;;;3.20;;
58643;SDS011;44411;49.994;8.660;2023-04-24T13:00:24;4.72;;;2.63;;
58643;SDS011;44411;49.994;8.660;2023-04-24T13:02:49;5.97;;;2.80;;
58643;SDS011;44411;49.994;8.660;2023-04-24T13:05:14;5.00;;;2.67;;
58643;SDS011;44411;49.994;8.660;2023-04-24T13:07:40;5.85;;;3.55;;
58643;SDS011;44411;49.994;8.660;2023-04-24T13:10:05;4.88;;;2.67;;
58643;SDS011;44411;49.994;8.660;2023-04-24T13:12:31;7.05;;;3.20;;
58643;SDS011;44411;49.994;8.660;2023-04-24T13:14:57;5.82;;;3.20;;
58643;SDS011;44411;49.994;8.660;2023-04-24T13:17:22;6.63;;;2.80;;
58643;SDS011;44411;49.994;8.660;2023-04-24T13:19:49;6.03;;;2.87;;
58643;SDS011;44411;49.994;8.660;2023-04-24T13:22:15;7.43;;;2.83;;
58643;SDS011;44411;49.994;8.660;2023-04-24T13:24:40;4.78;;;2.88;;
58643;SDS011;44411;49.994;8.660;2023-04-24T13:27:06;5.90;;;2.85;;
58643;SDS011;44411;49.994;8.660;2023-04-24T13:29:31;4.57;;;2.72;;
58643;SDS011;44411;49.994;8.660;2023-04-24T13:31:57;5.78;;;2.42;;
58643;SDS011;44411;49.994;8.660;2023-04-24T13:34:25;4.82;;;2.85;;
58643;SDS011;44411;49.994;8.660;2023-04-24T13:36:52;5.22;;;2.60;;
58643;SDS011;44411;49.994;8.660;2023-04-24T13:39:17;4.45;;;2.65;;
58643;SDS011;44411;49.994;8.660;2023-04-24T13:41:42;7.00;;;3.22;;
58643;SDS011;44411;49.994;8.660;2023-04-24T13:44:08;6.00;;;2.58;;
58643;SDS011;44411;49.994;8.660;2023-04-24T13:46:33;4.63;;;2.10;;
58643;SDS011;44411;49.994;8.660;2023-04-24T13:48:59;5.00;;;2.60;;
58643;SDS011;44411;49.994;8.660;2023-04-24T13:51:27;5.13;;;2.45;;
58643;SDS011;44411;49.994;8.660;2023-04-24T13:53:53;5.53;;;2.28;;
58643;SDS011;44411;49.994;8.660;2023-04-24T13:56:18;4.13;;;2.25;;
58643;SDS011;44411;49.994;8.660;2023-04-24T13:58:43;5.57;;;3.20;;
58643;SDS011;44411;49.994;8.660;2023-04-24T14:01:08;5.37;;;2.87;;
58643;SDS011;44411;49.994;8.660;2023-04-24T14:03:33;5.77;;;3.30;;
58643;SDS011;44411;49.994;8.660;2023-04-24T14:05:59;5.97;;;3.13;;
58643;SDS011;44411;49.994;8.660;2023-04-24T14:08:24;5.07;;;3.08;;
58643;SDS011;44411;49.994;8.660;2023-04-24T14:10:50;6.65;;;3.60;;
58643;SDS011;44411;49.994;8.660;2023-04-24T14:13:15;4.35;;;2.40;;
58643;SDS011;44411;49.994;8.660;2023-04-24T14:15:41;6.25;;;3.40;;
58643;SDS011;44411;49.994;8.660;2023-04-24T14:18:06;6.37;;;2.77;;
58643;SDS011;44411;49.994;8.660;2023-04-24T14:20:31;5.17;;;2.87;;
58643;SDS011;44411;49.994;8.660;2023-04-24T14:22:57;4.78;;;2.78;;
58643;SDS011;44411;49.994;8.660;2023-04-24T14:25:25;5.22;;;2.85;;
58643;SDS011;44411;49.994;8.660;2023-04-24T14:27:50;5.10;;;2.95;;
58643;SDS011;44411;49.994;8.660;2023-04-24T14:30:15;5.93;;;3.30;;
58643;SDS011;44411;49.994;8.660;2023-04-24T14:32:42;6.70;;;3.22;;
58643;SDS011;44411;49.994;8.660;2023-04-24T14:35:07;5.73;;;2.93;;
58643;SDS011;44411;49.994;8.660;2023-04-24T14:37:32;6.32;;;2.90;;
58643;SDS011;44411;49.994;8.660;2023-04-24T14:39:58;6.40;;;2.85;;
58643;SDS011;44411;49.994;8.660;2023-04-24T14:42:23;10.13;;;3.20;;
58643;SDS011;44411;49.994;8.660;2023-04-24T14:44:48;4.22;;;2.28;;
58643;SDS011;44411;49.994;8.660;2023-04-24T14:47:13;4.95;;;2.80;;
58643;SDS011;44411;49.994;8.660;2023-04-24T14:49:39;5.20;;;2.70;;
58643;SDS011;44411;49.994;8.660;2023-04-24T14:52:04;3.95;;;2.17;;
58643;SDS011;44411;49.994;8.660;2023-04-24T14:54:29;4.28;;;2.80;;
58643;SDS011;44411;49.994;8.660;2023-04-24T14:56:55;5.60;;;3.00;;
58643;SDS011;44411;49.994;8.660;2023-04-24T14:59:22;4.65;;;2.30;;
58643;SDS011;44411;49.994;8.660;2023-04-24T15:01:47;6.60;;;2.90;;
58643;SDS011;44411;49.994;8.660;2023-04-24T15:04:12;4.30;;;2.30;;
58643;SDS011;44411;49.994;8.660;2023-04-24T15:06:37;4.70;;;3.00;;
58643;SDS011;44411;49.994;8.660;2023-04-24T15:09:03;5.27;;;2.60;;
58643;SDS011;44411;49.994;8.660;2023-04-24T15:11:28;3.67;;;2.30;;
58643;SDS011;44411;49.994;8.660;2023-04-24T15:13:53;4.73;;;2.83;;
58643;SDS011;44411;49.994;8.660;2023-04-24T15:16:19;4.75;;;2.15;;
58643;SDS011;44411;49.994;8.660;2023-04-24T15:18:45;4.75;;;2.70;;
58643;SDS011;44411;49.994;8.660;2023-04-24T15:21:10;4.43;;;2.50;;
58643;SDS011;44411;49.994;8.660;2023-04-24T15:23:37;3.30;;;1.92;;
58643;SDS011;44411;49.994;8.660;2023-04-24T15:26:02;6.13;;;2.13;;
58643;SDS011;44411;49.994;8.660;2023-04-24T15:28:28;5.90;;;2.40;;
58643;SDS011;44411;49.994;8.660;2023-04-24T15:30:53;3.72;;;2.30;;
58643;SDS011;44411;49.994;8.660;2023-04-24T15:33:18;4.40;;;2.53;;
58643;SDS011;44411;49.994;8.660;2023-04-24T15:35:43;7.20;;;3.70;;
58643;SDS011;44411;49.994;8.660;2023-04-24T15:38:08;5.50;;;2.77;;
58643;SDS011;44411;49.994;8.660;2023-04-24T15:40:34;4.60;;;2.33;;
58643;SDS011;44411;49.994;8.660;2023-04-24T15:43:02;5.25;;;2.55;;
58643;SDS011;44411;49.994;8.660;2023-04-24T15:45:27;5.43;;;3.22;;
58643;SDS011;44411;49.994;8.660;2023-04-24T15:47:52;3.15;;;2.20;;
58643;SDS011;44411;49.994;8.660;2023-04-24T15:50:18;4.57;;;2.53;;
58643;SDS011;44411;49.994;8.660;2023-04-24T15:52:45;4.57;;;2.60;;
58643;SDS011;44411;49.994;8.660;2023-04-24T15:55:10;3.58;;;1.98;;
58643;SDS011;44411;49.994;8.660;2023-04-24T15:57:36;4.38;;;2.60;;
58643;SDS011;44411;49.994;8.660;2023-04-24T16:00:01;4.07;;;2.60;;
58643;SDS011;44411;49.994;8.660;2023-04-24T16:02:27;4.63;;;2.38;;
58643;SDS011;44411;49.994;8.660;2023-04-24T16:04:53;5.50;;;2.83;;
58643;SDS011;44411;49.994;8.660;2023-04-24T16:07:18;4.75;;;2.50;;
58643;SDS011;44411;49.994;8.660;2023-04-24T16:09:43;3.73;;;2.27;;
58643;SDS011;44411;49.994;8.660;2023-04-24T16:12:09;3.85;;;2.42;;
58643;SDS011;44411;49.994;8.660;2023-04-24T16:14:34;5.75;;;2.60;;
58643;SDS011;44411;49.994;8.660;2023-04-24T16:16:59;5.80;;;2.90;;
58643;SDS011;44411;49.994;8.660;2023-04-24T16:19:26;5.20;;;2.65;;
58643;SDS011;44411;49.994;8.660;2023-04-24T16:21:51;5.53;;;2.90;;
58643;SDS011;44411;49.994;8.660;2023-04-24T16:24:18;5.97;;;2.20;;
58643;SDS011;44411;49.994;8.660;2023-04-24T16:26:43;6.15;;;2.72;;
58643;SDS011;44411;49.994;8.660;2023-04-24T16:29:08;5.00;;;2.70;;
58643;SDS011;44411;49.994;8.660;2023-04-24T16:31:34;6.33;;;2.90;;
58643;SDS011;44411;49.994;8.660;2023-04-24T16:33:59;5.18;;;2.67;;
58643;SDS011;44411;49.994;8.660;2023-04-24T16:36:24;6.93;;;2.95;;
58643;SDS011;44411;49.994;8.660;2023-04-24T16:38:50;4.55;;;2.75;;
58643;SDS011;44411;49.994;8.660;2023-04-24T16:41:16;6.00;;;2.88;;
58643;SDS011;44411;49.994;8.660;2023-04-24T16:43:42;6.15;;;3.35;;
58643;SDS011;44411;49.994;8.660;2023-04-24T16:46:07;5.93;;;2.80;;
58643;SDS011;44411;49.994;8.660;2023-04-24T16:48:32;3.87;;;2.57;;
58643;SDS011;44411;49.994;8.660;2023-04-24T16:50:58;3.95;;;2.63;;
58643;SDS011;44411;49.994;8.660;2023-04-24T16:53:23;4.37;;;2.80;;
58643;SDS011;44411;49.994;8.660;2023-04-24T16:55:48;6.88;;;2.80;;
58643;SDS011;44411;49.994;8.660;2023-04-24T16:58:13;4.83;;;2.70;;
58643;SDS011;44411;49.994;8.660;2023-04-24T17:00:39;5.43;;;2.50;;
58643;SDS011;44411;49.994;8.660;2023-04-24T17:03:04;6.60;;;2.50;;
58643;SDS011;44411;49.994;8.660;2023-04-24T17:05:29;5.75;;;3.03;;
58643;SDS011;44411;49.994;8.660;2023-04-24T17:07:55;5.03;;;2.85;;
58643;SDS011;44411;49.994;8.660;2023-04-24T17:10:20;7.50;;;3.17;;
58643;SDS011;44411;49.994;8.660;2023-04-24T17:12:45;5.17;;;2.70;;
58643;SDS011;44411;49.994;8.660;2023-04-24T17:15:10;5.57;;;2.72;;
58643;SDS011;44411;49.994;8.660;2023-04-24T17:17:36;4.77;;;2.60;;
58643;SDS011;44411;49.994;8.660;2023-04-24T17:20:01;6.07;;;3.03;;
58643;SDS011;44411;49.994;8.660;2023-04-24T17:22:26;7.03;;;3.03;;
58643;SDS011;44411;49.994;8.660;2023-04-24T17:24:51;4.83;;;2.90;;
58643;SDS011;44411;49.994;8.660;2023-04-24T17:27:16;7.83;;;2.70;;
58643;SDS011;44411;49.994;8.660;2023-04-24T17:29:42;6.18;;;2.67;;
58643;SDS011;44411;49.994;8.660;2023-04-24T17:32:07;5.03;;;3.05;;
58643;SDS011;44411;49.994;8.660;2023-04-24T17:34:32;6.07;;;3.30;;
58643;SDS011;44411;49.994;8.660;2023-04-24T17:36:58;6.18;;;2.88;;
58643;SDS011;44411;49.994;8.660;2023-04-24T17:39:23;4.87;;;2.83;;
58643;SDS011;44411;49.994;8.660;2023-04-24T17:41:48;4.90;;;3.00;;
58643;SDS011;44411;49.994;8.660;2023-04-24T17:44:13;5.60;;;3.80;;
58643;SDS011;44411;49.994;8.660;2023-04-24T17:46:38;6.60;;;3.57;;
58643;SDS011;44411;49.994;8.660;2023-04-24T17:49:04;5.28;;;3.00;;
58643;SDS011;44411;49.994;8.660;2023-04-24T17:51:29;7.00;;;3.53;;
58643;SDS011;44411;49.994;8.660;2023-04-24T17:53:54;6.40;;;3.37;;
58643;SDS011;44411;49.994;8.660;2023-04-24T17:56:20;6.03;;;3.10;;
58643;SDS011;44411;49.994;8.660;2023-04-24T17:58:45;7.65;;;3.17;;
58643;SDS011;44411;49.994;8.660;2023-04-24T18:01:11;6.55;;;4.25;;
58643;SDS011;44411;49.994;8.660;2023-04-24T18:03:36;6.55;;;3.60;;
58643;SDS011;44411;49.994;8.660;2023-04-24T18:06:02;6.53;;;3.78;;
58643;SDS011;44411;49.994;8.660;2023-04-24T18:08:27;6.65;;;4.18;;
58643;SDS011;44411;49.994;8.660;2023-04-24T18:10:53;6.07;;;3.57;;
58643;SDS011;44411;49.994;8.660;2023-04-24T18:13:18;6.90;;;3.87;;
58643;SDS011;44411;49.994;8.660;2023-04-24T18:15:43;7.05;;;4.05;;
58643;SDS011;44411;49.994;8.660;2023-04-24T18:18:09;6.03;;;3.50;;
58643;SDS011;44411;49.994;8.660;2023-04-24T18:20:35;6.80;;;3.92;;
58643;SDS011;44411;49.994;8.660;2023-04-24T18:23:00;6.03;;;3.35;;
58643;SDS011;44411;49.994;8.660;2023-04-24T18:25:25;9.63;;;3.57;;
58643;SDS011;44411;49.994;8.660;2023-04-24T18:27:50;7.15;;;3.75;;
58643;SDS011;44411;49.994;8.660;2023-04-24T18:30:16;7.85;;;4.53;;
58643;SDS011;44411;49.994;8.660;2023-04-24T18:32:41;5.63;;;3.42;;
58643;SDS011;44411;49.994;8.660;2023-04-24T18:35:06;6.50;;;4.00;;
58643;SDS011;44411;49.994;8.660;2023-04-24T18:37:32;5.63;;;3.20;;
58643;SDS011;44411;49.994;8.660;2023-04-24T18:39:57;7.47;;;3.55;;
58643;SDS011;44411;49.994;8.660;2023-04-24T18:42:22;6.90;;;3.60;;
58643;SDS011;44411;49.994;8.660;2023-04-24T18:44:47;5.57;;;3.17;;
58643;SDS011;44411;49.994;8.660;2023-04-24T18:47:13;7.18;;;3.20;;
58643;SDS011;44411;49.994;8.660;2023-04-24T18:49:38;5.77;;;3.13;;
58643;SDS011;44411;49.994;8.660;2023-04-24T18:52:04;6.47;;;3.75;;
58643;SDS011;44411;49.994;8.660;2023-04-24T18:54:30;6.70;;;3.40;;
58643;SDS011;44411;49.994;8.660;2023-04-24T18:56:55;8.80;;;4.20;;
58643;SDS011;44411;49.994;8.660;2023-04-24T18:59:20;8.02;;;3.10;;
58643;SDS011;44411;49.994;8.660;2023-04-24T19:01:46;5.93;;;3.70;;
58643;SDS011;44411;49.994;8.660;2023-04-24T19:04:11;5.25;;;3.33;;